createdAt,value
2019-03-23T07:48:21.735Z,3.83
2019-03-23T07:53:26.673Z,4.53
2019-03-23T07:58:31.721Z,4.20
2019-03-23T08:03:36.936Z,4.83
2019-03-23T08:08:41.761Z,5.97
2019-03-23T08:13:46.591Z,4.97
2019-03-23T08:18:51.311Z,3.70
2019-03-23T08:23:56.361Z,3.80
2019-03-23T08:29:03.213Z,3.80
2019-03-23T08:34:07.991Z,3.90
2019-03-23T08:39:12.760Z,4.57
2019-03-23T08:44:17.736Z,3.83
2019-03-23T08:49:22.580Z,4.43
2019-03-23T08:54:27.410Z,4.07
2019-03-23T08:59:32.562Z,3.60
2019-03-23T09:04:37.666Z,3.73
2019-03-23T09:09:42.917Z,3.93
2019-03-23T09:14:47.806Z,3.80
2019-03-23T09:19:52.762Z,4.20
2019-03-23T09:24:57.448Z,4.03
2019-03-23T09:30:02.216Z,4.37
2019-03-23T09:35:07.605Z,4.17
2019-03-23T09:40:12.501Z,4.70
2019-03-23T09:45:17.339Z,4.17
2019-03-23T09:50:22.126Z,3.53
2019-03-23T09:55:28.640Z,4.20
2019-03-23T10:00:34.484Z,3.93
2019-03-23T10:05:39.316Z,4.43
2019-03-23T10:10:44.186Z,4.53
2019-03-23T10:15:48.908Z,4.80
2019-03-23T10:20:53.821Z,3.50
2019-03-23T10:25:58.653Z,5.23
2019-03-23T10:31:03.953Z,4.20
2019-03-23T10:36:09.107Z,6.17
2019-03-23T10:41:13.956Z,5.30
2019-03-23T10:46:18.958Z,4.80
2019-03-23T10:51:23.754Z,5.30
2019-03-23T10:56:28.685Z,4.87
2019-03-23T11:01:34.655Z,4.67
2019-03-23T11:06:39.916Z,4.53
2019-03-23T11:11:44.992Z,4.87
2019-03-23T11:16:51.126Z,4.43
2019-03-23T11:21:55.839Z,4.60
2019-03-23T11:27:00.609Z,4.17
2019-03-23T11:32:05.462Z,5.33
2019-03-23T11:37:10.420Z,5.10
2019-03-23T11:42:15.606Z,4.80
2019-03-23T11:47:20.517Z,6.20
2019-03-23T11:52:25.611Z,5.70
2019-03-23T11:57:30.715Z,5.43
2019-03-23T12:02:36.451Z,5.30
2019-03-23T12:07:44.086Z,4.80
2019-03-23T12:12:48.981Z,5.07
2019-03-23T12:17:53.804Z,5.47
2019-03-23T12:22:58.641Z,5.33
2019-03-23T12:28:03.534Z,4.97
2019-03-23T12:33:08.926Z,6.40
2019-03-23T12:38:14.505Z,5.63
2019-03-23T12:43:19.665Z,5.40
2019-03-23T12:48:24.486Z,5.97
2019-03-23T12:53:29.381Z,5.60
2019-03-23T12:58:34.422Z,4.97
2019-03-23T13:03:39.301Z,4.80
2019-03-23T13:08:44.282Z,5.83
2019-03-23T13:13:49.017Z,5.17
2019-03-23T13:18:53.977Z,4.83
2019-03-23T13:23:58.957Z,4.97
2019-03-23T13:29:03.809Z,6.77
2019-03-23T13:34:09.111Z,4.80
2019-03-23T13:39:13.850Z,5.67
2019-03-23T13:44:23.095Z,5.17
2019-03-23T13:49:27.762Z,5.93
2019-03-23T13:54:32.574Z,4.43
2019-03-23T13:59:37.427Z,4.40
2019-03-23T14:04:42.833Z,5.23
2019-03-23T14:09:47.996Z,5.30
2019-03-23T14:14:52.860Z,5.10
2019-03-23T14:19:57.621Z,5.33
2019-03-23T14:25:02.704Z,7.43
2019-03-23T14:30:08.055Z,6.37
2019-03-23T14:35:12.881Z,5.17
2019-03-23T14:40:17.609Z,4.87
2019-03-23T14:45:22.586Z,4.70
2019-03-23T14:50:28.005Z,5.83
2019-03-23T14:55:33.129Z,5.37
2019-03-23T15:00:38.028Z,6.13
2019-03-23T15:05:42.866Z,6.13
2019-03-23T15:10:47.586Z,6.67
2019-03-23T15:15:52.550Z,5.80
2019-03-23T15:20:57.505Z,5.13
2019-03-23T15:26:03.368Z,5.90
2019-03-23T15:31:08.561Z,4.77
2019-03-23T15:36:13.291Z,5.40
2019-03-23T15:41:17.842Z,6.03
2019-03-23T15:46:22.375Z,7.10
2019-03-23T15:51:27.046Z,5.23
2019-03-23T15:56:32.696Z,6.40
2019-03-23T16:01:37.592Z,6.00
2019-03-23T16:06:45.351Z,5.57
2019-03-23T16:11:50.165Z,5.23
2019-03-23T16:16:56.365Z,6.00
2019-03-23T16:22:01.161Z,6.27
2019-03-23T16:27:05.946Z,7.47
2019-03-23T16:32:11.229Z,6.60
2019-03-23T16:37:16.468Z,5.63
2019-03-23T16:42:21.378Z,4.70
2019-03-23T16:47:26.146Z,5.67
2019-03-23T16:52:31.018Z,5.80
2019-03-23T16:57:35.827Z,6.37
2019-03-23T17:02:40.741Z,7.37
2019-03-23T17:07:45.583Z,7.60
2019-03-23T17:12:55.320Z,7.27
2019-03-23T17:17:57.021Z,7.40
2019-03-23T17:23:02.129Z,8.83
2019-03-23T17:28:06.810Z,6.80
2019-03-23T17:33:11.598Z,6.57
2019-03-23T17:38:16.289Z,7.83
2019-03-23T17:43:23.565Z,11.07
2019-03-23T17:48:28.356Z,10.30
2019-03-23T17:53:33.096Z,8.07
2019-03-23T17:58:38.133Z,7.77
2019-03-23T18:03:43.076Z,9.03
2019-03-23T18:08:48.016Z,8.27
2019-03-23T18:13:53.353Z,8.47
2019-03-23T18:18:58.336Z,8.60
2019-03-23T18:24:02.958Z,7.97
2019-03-23T18:29:08.036Z,7.93
2019-03-23T18:34:13.333Z,11.20
2019-03-23T18:39:18.536Z,11.17
2019-03-23T18:44:23.535Z,11.87
2019-03-23T18:49:28.435Z,11.33
2019-03-23T18:54:33.796Z,10.97
2019-03-23T18:59:38.937Z,10.47
2019-03-23T19:04:43.857Z,11.40
2019-03-23T19:09:49.650Z,10.63
2019-03-23T19:14:54.496Z,10.23
2019-03-23T19:19:59.436Z,10.43
2019-03-23T19:25:14.801Z,10.97
2019-03-23T19:30:12.818Z,11.40
2019-03-23T19:35:17.555Z,10.40
2019-03-23T19:40:22.616Z,12.27
2019-03-23T19:45:27.605Z,11.27
2019-03-23T19:50:32.716Z,13.33
2019-03-23T19:55:37.618Z,11.13
2019-03-23T20:00:42.556Z,11.37
2019-03-23T20:05:47.555Z,10.40
2019-03-23T20:10:53.855Z,10.90
2019-03-23T20:15:58.796Z,12.27
2019-03-23T20:21:03.665Z,12.40
2019-03-23T20:26:08.676Z,10.07
2019-03-23T20:31:15.373Z,10.30
2019-03-23T20:36:20.198Z,10.30
2019-03-23T20:41:24.985Z,11.20
2019-03-23T20:46:29.925Z,10.73
2019-03-23T20:51:35.093Z,10.37
2019-03-23T20:56:40.216Z,10.20
2019-03-23T21:01:45.392Z,9.23
2019-03-23T21:06:50.296Z,9.13
2019-03-23T21:11:57.036Z,10.50
2019-03-23T21:17:03.404Z,8.80
2019-03-23T21:22:08.355Z,8.97
2019-03-23T21:27:13.455Z,9.77
2019-03-23T21:32:18.216Z,10.10
2019-03-23T21:37:23.116Z,10.37
2019-03-23T21:42:27.796Z,11.23
2019-03-23T21:47:32.837Z,11.47
2019-03-23T21:52:37.855Z,10.43
2019-03-23T21:57:43.059Z,13.83
2019-03-23T22:02:48.236Z,11.43
2019-03-23T22:07:53.180Z,11.00
2019-03-23T22:12:59.273Z,12.20
2019-03-23T22:18:04.257Z,11.87
2019-03-23T22:23:11.377Z,12.47
2019-03-23T22:28:16.585Z,12.40
2019-03-23T22:33:21.676Z,12.07
2019-03-23T22:38:26.916Z,12.73
2019-03-23T22:43:31.857Z,10.17
2019-03-23T22:48:38.282Z,12.80
2019-03-23T22:53:42.981Z,12.87
2019-03-23T22:58:47.738Z,13.37
2019-03-23T23:03:52.937Z,12.07
2019-03-23T23:08:57.797Z,14.53
2019-03-23T23:14:02.875Z,13.37
2019-03-23T23:19:10.177Z,13.83
2019-03-23T23:24:15.215Z,14.63
2019-03-23T23:29:20.376Z,14.67
2019-03-23T23:34:25.636Z,12.90
2019-03-23T23:39:30.629Z,29.70
2019-03-23T23:44:36.937Z,4.80
2019-03-23T23:49:42.066Z,2.80
2019-03-23T23:54:46.856Z,1.93
2019-03-23T23:59:51.657Z,3.13
